Time;durP1;ratioP1;P1;durP2;ratioP2;P2;SDS_P1;SDS_P2;PMS_P1;PMS_P2;Temp;Humidity;BMP_temperature;BMP_pressure;BME280_temperature;BME280_humidity;BME280_pressure;Samples;Min_cycle;Max_cycle;Signal;HPM_P1;HPM_P2
2022/01/27 00:01:09;;;;;;;23.55;11.15;;;;;;;5.96;98.85;102746.66;5106335;28;20039;-73
2022/01/27 00:03:43;;;;;;;25.02;10.57;;;;;;;5.96;98.96;102731.00;5093674;28;20084;-73
2022/01/27 00:06:10;;;;;;;28.05;11.23;;;;;;;5.95;99.47;102730.06;5093379;28;20035;-74
2022/01/27 00:08:52;;;;;;;26.27;11.15;;;;;;;5.96;99.24;102725.78;5076126;28;20479;-73
2022/01/27 00:11:17;;;;;;;23.65;11.90;;;;;;;5.95;99.23;102723.94;5097465;28;20070;-72
2022/01/27 00:13:47;;;;;;;28.05;12.23;;;;;;;5.95;99.38;102710.88;5086689;28;20055;-74
2022/01/27 00:16:21;;;;;;;23.63;12.70;;;;;;;5.98;97.86;102705.88;5099981;28;20028;-74
2022/01/27 00:18:47;;;;;;;;;;;;;;;6.08;94.47;102710.91;5100651;28;20392;-74
2022/01/27 00:21:14;;;;;;;27.10;12.65;;;;;;;6.14;93.34;102700.84;5079200;28;20295;-75
2022/01/27 00:23:41;;;;;;;27.83;13.10;;;;;;;6.18;93.48;102702.84;5092783;28;20400;-73
2022/01/27 00:26:06;;;;;;;31.10;13.18;;;;;;;6.18;93.33;102712.41;5099398;28;20034;-73
2022/01/27 00:28:32;;;;;;;21.85;12.40;;;;;;;6.20;93.37;102718.63;5101816;28;20099;-73
2022/01/27 00:30:57;;;;;;;25.20;14.50;;;;;;;6.21;93.41;102708.31;5092593;28;20499;-73
2022/01/27 00:33:22;;;;;;;23.60;13.27;;;;;;;6.22;93.76;102699.63;5092541;28;20795;-73
2022/01/27 00:35:48;;;;;;;29.17;13.93;;;;;;;6.20;93.44;102700.34;5078895;28;20019;-74
2022/01/27 00:38:14;;;;;;;28.00;14.20;;;;;;;6.27;93.79;102702.56;5103979;28;20043;-73
2022/01/27 00:40:39;;;;;;;26.35;13.77;;;;;;;6.21;93.37;102708.31;5093287;28;20380;-74
2022/01/27 00:43:05;;;;;;;34.50;14.05;;;;;;;6.24;93.67;102700.66;5095844;28;20442;-72
2022/01/27 00:45:32;;;;;;;26.17;13.07;;;;;;;6.26;93.29;102712.91;5100906;28;20085;-74
2022/01/27 00:48:01;;;;;;;27.55;14.10;;;;;;;6.24;93.25;102697.13;5107830;28;20044;-74
2022/01/27 00:50:26;;;;;;;26.75;13.52;;;;;;;6.22;93.83;102709.19;5093932;28;20472;-74
2022/01/27 00:52:54;;;;;;;31.92;15.65;;;;;;;6.23;93.34;102706.66;5099414;28;20115;-74
2022/01/27 00:55:22;;;;;;;30.20;13.50;;;;;;;6.24;93.64;102712.81;5100573;28;20123;-73
2022/01/27 00:58:03;;;;;;;33.03;15.80;;;;;;;6.22;93.25;102709.19;5081888;28;20384;-74
2022/01/27 01:00:37;;;;;;;30.60;15.32;;;;;;;6.22;93.68;102694.41;5076677;28;20084;-73
2022/01/27 01:03:10;;;;;;;32.40;15.10;;;;;;;6.27;93.05;102680.72;5096102;28;20024;-73
2022/01/27 01:16:25;;;;;;;34.70;15.00;;;;;;;6.14;94.09;102621.53;5107410;28;20036;-73
2022/01/27 01:19:01;;;;;;;33.55;15.70;;;;;;;6.14;94.51;102634.63;5081048;28;20047;-74
2022/01/27 01:29:27;;;;;;;40.45;16.25;;;;;;;6.02;95.24;102621.66;5097716;28;20043;-74
2022/01/27 01:32:53;;;;;;;33.25;15.98;;;;;;;5.95;96.36;102620.31;5097988;28;20115;-74
2022/01/27 01:35:27;;;;;;;34.83;16.48;;;;;;;5.89;96.56;102625.19;5086357;28;20027;-73
2022/01/27 01:37:57;;;;;;;34.92;15.88;;;;;;;5.88;96.98;102607.69;5101232;28;20043;-73
2022/01/27 01:40:23;;;;;;;33.08;16.02;;;;;;;5.87;96.86;102611.09;5079217;28;20047;-73
2022/01/27 01:42:48;;;;;;;31.88;15.63;;;;;;;5.82;97.30;102608.19;5083977;28;20031;-73
2022/01/27 01:45:17;;;;;;;34.25;15.38;;;;;;;5.83;97.61;102627.38;5095737;28;20480;-73
2022/01/27 01:47:43;;;;;;;35.25;16.48;;;;;;;5.77;98.14;102634.84;5106592;28;20125;-73
2022/01/27 01:50:10;;;;;;;31.67;15.88;;;;;;;5.72;98.67;102632.81;5101987;28;20028;-73
2022/01/27 01:52:36;;;;;;;29.58;15.30;;;;;;;5.67;98.61;102617.63;5103648;28;20024;-74
2022/01/27 01:55:03;;;;;;;37.10;16.27;;;;;;;5.57;98.81;102606.63;5094752;28;20507;-73
2022/01/27 01:57:28;;;;;;;29.25;15.50;;;;;;;5.60;99.12;102599.75;5082410;28;20502;-74
2022/01/27 01:59:53;;;;;;;32.25;15.77;;;;;;;5.60;99.42;102600.66;5104723;28;20103;-73
2022/01/27 02:02:19;;;;;;;33.67;16.55;;;;;;;5.53;99.08;102594.13;5094299;28;20130;-73
2022/01/27 02:04:45;;;;;;;35.85;15.45;;;;;;;5.49;99.70;102592.13;5105374;28;20060;-73
2022/01/27 02:07:41;;;;;;;34.80;15.77;;;;;;;5.48;99.54;102589.41;5102494;28;20027;-73
2022/01/27 02:10:18;;;;;;;35.47;15.70;;;;;;;5.47;100.00;102593.75;5084337;28;20032;-74
2022/01/27 02:18:11;;;;;;;30.15;16.00;;;;;;;5.48;100.00;102621.66;5095029;28;20047;-73
2022/01/27 02:20:39;;;;;;;31.38;15.85;;;;;;;5.54;100.00;102605.50;5103800;28;20023;-73
2022/01/27 02:23:07;;;;;;;28.48;15.30;;;;;;;5.49;100.00;102613.00;5102786;28;20027;-73
2022/01/27 02:25:33;;;;;;;30.42;15.15;;;;;;;5.47;100.00;102609.41;5100619;28;20027;-72
2022/01/27 02:27:58;;;;;;;31.38;15.27;;;;;;;5.46;100.00;102610.22;5099491;28;20111;-74
2022/01/27 02:30:25;;;;;;;32.15;14.88;;;;;;;5.47;100.00;102619.84;5086484;28;20039;-73
2022/01/27 02:32:54;;;;;;;32.67;15.00;;;;;;;5.51;100.00;102610.53;5099863;28;20035;-75
2022/01/27 02:35:22;;;;;;;32.30;14.40;;;;;;;5.50;100.00;102619.16;5095436;28;20023;-73
2022/01/27 02:37:47;;;;;;;30.20;13.10;;;;;;;5.50;100.00;102608.72;5099856;28;20077;-74
2022/01/27 02:40:19;;;;;;;33.20;13.02;;;;;;;5.52;100.00;102612.31;5097006;28;20028;-75
2022/01/27 02:42:44;;;;;;;27.83;13.15;;;;;;;5.57;100.00;102601.41;5097523;28;20476;-74
2022/01/27 02:45:31;;;;;;;30.67;13.07;;;;;;;5.63;100.00;102603.50;5095152;28;20072;-74
2022/01/27 02:47:56;;;;;;;30.27;12.32;;;;;;;5.68;100.00;102609.00;5099965;28;20503;-74
2022/01/27 02:50:21;;;;;;;30.88;12.77;;;;;;;5.73;100.00;102595.44;5096123;28;20084;-74
2022/01/27 02:52:47;;;;;;;29.92;12.70;;;;;;;5.74;100.00;102594.63;5107262;28;20083;-73
2022/01/27 02:55:12;;;;;;;26.80;11.77;;;;;;;5.86;99.79;102578.84;5096045;28;20059;-73
2022/01/27 02:57:38;;;;;;;23.40;11.30;;;;;;;5.86;100.00;102557.94;5099414;28;20032;-73
2022/01/27 03:00:06;;;;;;;30.70;11.52;;;;;;;5.90;99.91;102546.88;5100581;28;20126;-74
2022/01/27 03:02:33;;;;;;;27.77;12.10;;;;;;;5.94;100.00;102545.38;5093677;28;20039;-73
2022/01/27 03:04:58;;;;;;;30.17;11.02;;;;;;;5.93;100.00;102542.63;5085607;28;20473;-73
2022/01/27 03:07:24;;;;;;;26.30;10.93;;;;;;;6.00;100.00;102537.94;5099956;28;20051;-74
2022/01/27 03:09:49;;;;;;;25.52;12.60;;;;;;;5.98;100.00;102534.34;5079247;28;20110;-74
2022/01/27 03:12:16;;;;;;;31.33;10.80;;;;;;;6.03;100.00;102530.28;5104700;28;20036;-73
2022/01/27 03:14:42;;;;;;;26.98;9.93;;;;;;;6.01;100.00;102525.75;5104956;28;20057;-74
2022/01/27 03:17:09;;;;;;;25.40;10.90;;;;;;;6.00;100.00;102530.09;5100046;28;20118;-74
2022/01/27 03:19:35;;;;;;;23.65;9.65;;;;;;;6.06;100.00;102533.13;5095972;28;20132;-74
2022/01/27 03:22:02;;;;;;;31.95;10.38;;;;;;;6.06;100.00;102520.06;5074960;28;20589;-72
2022/01/27 03:24:28;;;;;;;27.48;10.30;;;;;;;6.08;100.00;102530.59;5103608;28;20058;-73
2022/01/27 03:26:55;;;;;;;25.83;9.57;;;;;;;6.08;100.00;102521.03;5098335;28;20422;-74
2022/01/27 03:29:21;;;;;;;27.13;9.85;;;;;;;6.07;100.00;102511.38;5095908;28;20050;-73
2022/01/27 03:31:47;;;;;;;19.92;8.77;;;;;;;6.06;100.00;102514.81;5081360;28;20539;-75
2022/01/27 03:34:13;;;;;;;25.40;9.60;;;;;;;6.08;100.00;102518.41;5093848;28;20123;-74
2022/01/27 03:36:38;;;;;;;25.58;8.65;;;;;;;6.09;100.00;102508.88;5079359;28;20074;-74
2022/01/27 03:39:05;;;;;;;27.17;9.25;;;;;;;6.07;100.00;102506.16;5098689;28;20024;-74
2022/01/27 03:41:35;;;;;;;23.15;8.20;;;;;;;6.09;100.00;102493.19;5093366;28;20032;-73
2022/01/27 03:44:02;;;;;;;23.52;9.32;;;;;;;6.06;100.00;102493.91;5079536;28;20032;-74
2022/01/27 03:46:28;;;;;;;23.58;9.20;;;;;;;6.08;100.00;102473.97;5102197;28;20034;-74
2022/01/27 03:48:53;;;;;;;23.15;8.63;;;;;;;6.08;100.00;102473.97;5083975;28;20048;-75
2022/01/27 03:51:19;;;;;;;24.73;9.52;;;;;;;6.08;100.00;102471.38;5100676;28;20032;-74
2022/01/27 03:53:44;;;;;;;28.10;10.52;;;;;;;6.13;100.00;102474.28;5096816;28;20030;-74
2022/01/27 03:56:09;;;;;;;27.55;9.75;;;;;;;6.15;100.00;102467.41;5096622;28;20392;-74
2022/01/27 03:58:35;;;;;;;31.13;9.55;;;;;;;6.19;100.00;102458.06;5097825;28;20368;-73
2022/01/27 04:01:02;;;;;;;23.17;8.95;;;;;;;6.21;100.00;102459.03;5083488;28;20027;-74
2022/01/27 04:03:31;;;;;;;25.50;11.10;;;;;;;6.23;100.00;102458.34;5104180;28;20024;-74
2022/01/27 04:06:03;;;;;;;30.52;10.55;;;;;;;6.23;100.00;102465.28;5075717;28;20543;-74
2022/01/27 04:08:28;;;;;;;31.83;10.45;;;;;;;6.26;100.00;102465.47;5102056;28;20111;-75
2022/01/27 04:10:54;;;;;;;24.58;10.18;;;;;;;6.30;100.00;102472.69;5089294;28;20489;-75
2022/01/27 04:13:19;;;;;;;31.05;11.20;;;;;;;6.33;100.00;102466.72;5077288;28;20123;-74
2022/01/27 04:15:45;;;;;;;28.52;11.95;;;;;;;6.34;100.00;102453.75;5102453;28;20028;-73
2022/01/27 04:18:11;;;;;;;30.95;11.05;;;;;;;6.40;100.00;102451.50;5077944;28;20046;-73
2022/01/27 04:20:40;;;;;;;22.75;10.15;;;;;;;6.40;100.00;102454.13;5097019;28;20044;-73
2022/01/27 04:23:06;;;;;;;23.83;9.95;;;;;;;6.44;100.00;102449.06;5095141;28;20028;-74
2022/01/27 04:25:32;;;;;;;41.80;11.95;;;;;;;6.45;100.00;102449.16;5101502;28;20081;-74
2022/01/27 04:28:03;;;;;;;25.40;10.00;;;;;;;6.46;100.00;102436.97;5088341;28;20105;-74
2022/01/27 04:30:28;;;;;;;27.23;9.55;;;;;;;6.46;100.00;102437.91;5081893;28;20059;-74
2022/01/27 04:32:58;;;;;;;33.25;10.63;;;;;;;6.49;100.00;102437.19;5094484;28;20497;-74
2022/01/27 04:35:27;;;;;;;29.83;10.32;;;;;;;6.51;100.00;102431.22;5099777;28;20036;-74
2022/01/27 04:38:05;;;;;;;28.60;10.45;;;;;;;6.58;100.00;102438.63;5102626;28;20032;-73
2022/01/27 04:40:41;;;;;;;24.67;9.75;;;;;;;6.65;100.00;102437.25;5097480;28;20030;-72
2022/01/27 04:43:17;;;;;;;29.02;10.07;;;;;;;6.61;100.00;102432.66;5091195;28;20063;-74
2022/01/27 04:45:57;;;;;;;30.60;10.48;;;;;;;6.63;100.00;102435.38;5086866;28;20065;-73
2022/01/27 04:48:23;;;;;;;25.20;9.82;;;;;;;6.68;100.00;102431.31;5098967;28;20055;-73
2022/01/27 04:50:51;;;;;;;24.50;9.70;;;;;;;6.65;100.00;102442.50;5096183;28;20032;-73
2022/01/27 04:53:32;;;;;;;23.73;10.63;;;;;;;6.72;100.00;102442.03;5080993;28;20032;-74
2022/01/27 04:55:59;;;;;;;32.20;10.40;;;;;;;6.63;100.00;102441.47;5097937;28;20027;-75
2022/01/27 04:58:31;;;;;;;25.75;10.57;;;;;;;6.66;100.00;102435.53;5090971;28;20016;-74
2022/01/27 05:01:00;;;;;;;31.92;9.93;;;;;;;6.68;100.00;102434.81;5101539;28;20027;-73
2022/01/27 05:05:57;;;;;;;36.78;11.48;;;;;;;6.68;100.00;102426.97;5097383;28;20036;-74
2022/01/27 05:08:22;;;;;;;26.42;9.32;;;;;;;6.73;100.00;102428.16;5096004;28;20028;-74
2022/01/27 05:10:56;;;;;;;27.08;8.93;;;;;;;6.69;100.00;102420.03;5104290;28;20070;-74
2022/01/27 05:13:26;;;;;;;31.23;10.52;;;;;;;6.69;100.00;102426.16;5091394;28;20036;-74
2022/01/27 05:15:52;;;;;;;26.00;9.32;;;;;;;6.75;100.00;102429.16;5114969;28;20506;-73
2022/01/27 05:18:17;;;;;;;21.02;8.93;;;;;;;6.73;100.00;102433.38;5098889;28;20024;-74
2022/01/27 05:20:43;;;;;;;35.33;9.20;;;;;;;6.80;100.00;102428.50;5107375;28;20035;-73
2022/01/27 05:23:08;;;;;;;27.80;10.07;;;;;;;6.79;100.00;102424.97;5106630;28;20101;-74
2022/01/27 05:25:34;;;;;;;32.22;10.68;;;;;;;6.81;100.00;102414.59;5077929;28;20027;-73
2022/01/27 05:28:00;;;;;;;27.05;9.38;;;;;;;6.84;100.00;102409.56;5103625;28;20036;-75
2022/01/27 05:30:25;;;;;;;28.02;9.65;;;;;;;6.87;100.00;102414.97;5102765;28;20035;-74
2022/01/27 05:32:51;;;;;;;35.67;10.15;;;;;;;6.86;100.00;102397.44;5098787;28;20024;-74
2022/01/27 05:35:16;;;;;;;30.48;9.05;;;;;;;6.86;100.00;102405.28;5078347;28;20027;-73
2022/01/27 05:37:41;;;;;;;25.20;8.63;;;;;;;6.90;100.00;102396.81;5095198;28;20032;-73
2022/01/27 05:40:07;;;;;;;24.55;8.50;;;;;;;6.89;100.00;102402.84;5101600;28;20145;-75
2022/01/27 05:42:33;;;;;;;26.65;9.23;;;;;;;6.91;100.00;102393.38;5083478;28;20035;-75
2022/01/27 05:44:58;;;;;;;26.42;9.20;;;;;;;6.97;100.00;102396.31;5099896;28;20023;-72
2022/01/27 05:47:23;;;;;;;27.20;8.73;;;;;;;6.97;100.00;102398.94;5095892;28;20032;-73
2022/01/27 05:49:49;;;;;;;28.38;9.70;;;;;;;7.02;100.00;102389.63;5099689;28;20031;-73
2022/01/27 05:52:14;;;;;;;28.05;9.40;;;;;;;6.99;100.00;102392.09;5100511;28;20403;-74
2022/01/27 05:54:40;;;;;;;32.67;10.32;;;;;;;7.02;100.00;102381.78;5099569;28;20028;-73
2022/01/27 05:57:05;;;;;;;25.00;9.10;;;;;;;7.01;100.00;102382.63;5084267;28;20031;-73
2022/01/27 05:59:30;;;;;;;28.60;9.60;;;;;;;7.01;100.00;102382.63;5105803;28;20490;-73
2022/01/27 06:01:56;;;;;;;22.23;8.68;;;;;;;7.06;100.00;102378.53;5107311;28;20016;-73
2022/01/27 06:04:21;;;;;;;28.25;9.35;;;;;;;7.04;100.00;102382.78;5100504;28;20032;-74
2022/01/27 06:06:46;;;;;;;35.78;9.13;;;;;;;7.08;100.00;102371.69;5098795;28;20047;-73
2022/01/27 06:09:12;;;;;;;30.20;9.15;;;;;;;7.08;100.00;102368.13;5094850;28;20066;-73
2022/01/27 06:11:37;;;;;;;30.38;9.13;;;;;;;7.10;100.00;102377.00;5104267;28;20106;-73
2022/01/27 06:14:03;;;;;;;31.70;9.45;;;;;;;7.11;100.00;102370.03;5076934;28;20028;-73
2022/01/27 06:16:28;;;;;;;29.23;8.38;;;;;;;7.09;100.00;102368.25;5094790;28;20058;-73
2022/01/27 06:18:54;;;;;;;25.58;8.93;;;;;;;7.13;100.00;102365.78;5108735;28;20028;-73
2022/01/27 06:21:19;;;;;;;25.90;8.50;;;;;;;7.15;100.00;102369.38;5105914;28;20032;-74
2022/01/27 06:23:45;;;;;;;30.13;8.55;;;;;;;7.21;100.00;102360.16;5094219;28;20095;-74
2022/01/27 06:26:10;;;;;;;35.13;8.10;;;;;;;7.19;100.00;102360.88;5082942;28;20502;-73
2022/01/27 06:28:35;;;;;;;29.65;9.50;;;;;;;7.24;100.00;102354.19;5100570;28;20091;-73
2022/01/27 06:31:01;;;;;;;24.42;8.82;;;;;;;7.24;100.00;102375.13;5096129;28;20536;-72
2022/01/27 06:33:26;;;;;;;28.45;8.85;;;;;;;7.24;100.00;102364.66;5099854;28;20591;-72
2022/01/27 06:35:51;;;;;;;29.13;8.73;;;;;;;7.25;100.00;102356.00;5101896;28;20035;-73
2022/01/27 06:38:20;;;;;;;30.27;9.15;;;;;;;7.28;100.00;102345.66;5096181;28;20059;-75
2022/01/27 06:40:45;;;;;;;29.88;8.27;;;;;;;7.25;100.00;102362.13;5094015;28;20024;-73
2022/01/27 06:43:14;;;;;;;28.08;8.20;;;;;;;7.27;100.00;102351.75;5097591;28;20395;-72
2022/01/27 06:45:40;;;;;;;27.65;8.80;;;;;;;7.27;100.00;102364.84;5106294;28;20028;-73
2022/01/27 06:48:05;;;;;;;23.67;7.95;;;;;;;7.27;100.00;102364.84;5102752;28;20526;-73
2022/01/27 06:50:36;;;;;;;22.60;8.95;;;;;;;7.32;100.00;102365.06;5098190;28;20067;-74
2022/01/27 06:53:02;;;;;;;21.35;8.02;;;;;;;7.26;100.00;102376.13;5108943;28;20483;-74
2022/01/27 06:55:29;;;;;;;22.50;8.10;;;;;;;7.21;100.00;102381.09;5078319;28;20126;-73
2022/01/27 06:57:54;;;;;;;25.52;8.70;;;;;;;7.15;100.00;102375.53;5103969;28;20178;-74
2022/01/27 07:00:19;;;;;;;22.83;8.48;;;;;;;7.08;100.00;102390.00;5103764;28;20038;-73
2022/01/27 07:02:45;;;;;;;33.60;9.27;;;;;;;7.01;100.00;102382.63;5101487;28;20036;-74
2022/01/27 07:05:14;;;;;;;28.55;9.13;;;;;;;6.96;100.00;102378.84;5100917;28;20105;-73
2022/01/27 07:07:39;;;;;;;32.67;9.35;;;;;;;6.89;100.00;102385.44;5082824;28;20016;-73
2022/01/27 07:10:05;;;;;;;31.00;9.38;;;;;;;6.87;100.00;102388.78;5097547;28;20561;-74
2022/01/27 07:12:30;;;;;;;29.60;10.02;;;;;;;6.82;100.00;102395.47;5106003;28;20373;-75
2022/01/27 07:14:56;;;;;;;34.28;10.25;;;;;;;6.72;100.00;102392.31;5096188;28;20563;-75
2022/01/27 07:17:22;;;;;;;31.35;10.70;;;;;;;6.65;100.00;102389.28;5095917;28;20032;-75
2022/01/27 07:19:47;;;;;;;37.08;10.95;;;;;;;6.61;100.00;102385.59;5095764;28;20052;-75
2022/01/27 07:22:12;;;;;;;29.88;10.38;;;;;;;6.60;100.00;102381.16;5098983;28;20020;-76
2022/01/27 07:24:38;;;;;;;37.40;10.82;;;;;;;6.57;100.00;102386.22;5112101;27;20035;-74
2022/01/27 07:27:04;;;;;;;42.55;11.32;;;;;;;6.56;100.00;102387.91;5095190;28;20027;-76
2022/01/27 07:29:29;;;;;;;43.90;11.63;;;;;;;6.57;100.00;102384.50;5105070;27;20125;-73
2022/01/27 07:31:54;;;;;;;37.20;11.48;;;;;;;6.56;100.00;102387.03;5109161;27;20027;-73
2022/01/27 07:34:20;;;;;;;32.55;11.25;;;;;;;6.56;100.00;102387.91;5088617;28;20034;-74
2022/01/27 07:36:45;;;;;;;37.30;10.98;;;;;;;6.60;100.00;102389.00;5090117;28;20476;-75
2022/01/27 07:39:14;;;;;;;41.20;11.93;;;;;;;6.61;100.00;102400.38;5102747;28;20023;-74
2022/01/27 07:41:40;;;;;;;37.53;11.23;;;;;;;6.64;100.00;102390.97;5101990;28;20035;-73
2022/01/27 07:44:06;;;;;;;41.22;10.77;;;;;;;6.68;100.00;102392.06;5096862;28;20024;-73
2022/01/27 07:46:31;;;;;;;37.60;12.20;;;;;;;6.66;100.00;102397.22;5087315;28;20028;-76
2022/01/27 07:48:57;;;;;;;39.42;11.15;;;;;;;6.66;100.00;102393.69;5081544;28;20127;-76
2022/01/27 07:51:23;;;;;;;37.90;12.32;;;;;;;6.64;100.00;102388.38;5095395;28;20024;-76
2022/01/27 07:53:48;;;;;;;43.92;11.77;;;;;;;6.63;100.00;102386.56;5104457;28;20028;-75
2022/01/27 07:56:13;;;;;;;34.67;11.32;;;;;;;6.63;100.00;102403.97;5078039;28;20081;-76
2022/01/27 07:58:40;;;;;;;39.45;11.63;;;;;;;6.65;100.00;102398.03;5103305;28;20023;-76
2022/01/27 08:01:08;;;;;;;34.45;11.27;;;;;;;6.65;100.00;102390.19;5116632;28;20069;-76
2022/01/27 08:03:35;;;;;;;40.13;10.88;;;;;;;6.68;100.00;102398.19;5098469;28;20403;-75
2022/01/27 08:06:00;;;;;;;39.40;11.23;;;;;;;6.65;100.00;102400.63;5082039;28;20486;-75
2022/01/27 08:08:25;;;;;;;35.60;11.50;;;;;;;6.68;100.00;102400.81;5105860;28;20032;-76
2022/01/27 08:10:51;;;;;;;40.22;11.48;;;;;;;6.70;100.00;102387.81;5094254;27;20482;-76
2022/01/27 08:13:16;;;;;;;43.78;11.35;;;;;;;6.70;100.00;102396.59;5090062;28;20491;-76
2022/01/27 08:15:41;;;;;;;42.63;11.13;;;;;;;6.72;100.00;102397.56;5126779;27;20486;-77
2022/01/27 08:18:07;;;;;;;50.03;11.88;;;;;;;6.74;100.00;102406.41;5106323;28;20035;-78
2022/01/27 08:20:33;;;;;;;41.80;10.57;;;;;;;6.74;100.00;102395.03;5112852;27;20097;-78
2022/01/27 08:22:59;;;;;;;48.60;12.25;;;;;;;6.77;100.00;102396.91;5089754;28;20048;-76
2022/01/27 08:25:25;;;;;;;39.13;10.95;;;;;;;6.78;100.00;102391.75;5100303;28;20076;-76
2022/01/27 08:27:55;;;;;;;46.30;10.82;;;;;;;6.78;100.00;102396.09;5108497;28;20560;-76
2022/01/27 08:30:23;;;;;;;35.45;11.10;;;;;;;6.79;100.00;102393.56;5118175;27;20531;-76
2022/01/27 08:33:00;;;;;;;39.63;13.15;;;;;;;6.81;100.00;102391.97;5100277;27;20023;-76
2022/01/27 08:35:26;;;;;;;37.13;10.88;;;;;;;6.82;100.00;102390.22;5110606;28;20036;-76
2022/01/27 08:37:52;;;;;;;38.80;10.32;;;;;;;6.81;100.00;102398.88;5108344;27;20085;-77
2022/01/27 08:40:18;;;;;;;37.75;10.90;;;;;;;6.81;100.00;102401.50;5108734;27;20019;-79
2022/01/27 08:42:45;;;;;;;51.38;10.15;;;;;;;6.81;100.00;102393.66;5126244;27;20123;-76
2022/01/27 08:45:12;;;;;;;31.95;10.57;;;;;;;6.84;100.00;102393.84;5097624;28;20549;-78
2022/01/27 08:47:39;;;;;;;43.03;10.60;;;;;;;6.85;100.00;102387.78;5089809;28;20039;-78
2022/01/27 08:50:07;;;;;;;47.00;11.20;;;;;;;6.87;100.00;102383.56;5116100;27;20053;-78
2022/01/27 08:52:33;;;;;;;37.60;11.30;;;;;;;6.87;100.00;102381.81;5091900;28;20027;-78
2022/01/27 08:54:58;;;;;;;40.70;11.75;;;;;;;6.88;100.00;102381.03;5089045;28;20369;-78
2022/01/27 08:57:24;;;;;;;44.97;12.23;;;;;;;6.90;100.00;102384.63;5085775;28;20039;-77
2022/01/27 08:59:51;;;;;;;35.05;10.68;;;;;;;6.89;100.00;102397.59;5124857;27;20035;-77
2022/01/27 09:02:16;;;;;;;32.95;9.77;;;;;;;6.89;100.00;102389.75;5111222;27;20471;-77
2022/01/27 09:04:42;;;;;;;40.90;11.27;;;;;;;6.95;100.00;102392.75;5085288;28;20043;-77
2022/01/27 09:07:07;;;;;;;48.65;11.63;;;;;;;6.94;100.00;102396.16;5109210;27;20027;-76
2022/01/27 09:09:33;;;;;;;40.08;10.60;;;;;;;6.96;100.00;102399.78;5088456;28;20039;-75
2022/01/27 09:11:59;;;;;;;35.45;10.45;;;;;;;6.99;100.00;102380.75;5097098;27;20023;-75
2022/01/27 09:14:29;;;;;;;38.20;10.55;;;;;;;7.03;100.00;102386.22;5097788;27;20384;-75
2022/01/27 09:16:56;;;;;;;36.28;10.10;;;;;;;7.04;100.00;102393.25;5087726;28;20027;-73
2022/01/27 09:19:21;;;;;;;30.27;9.30;;;;;;;7.08;100.00;102379.53;5089077;28;20039;-75
2022/01/27 09:21:47;;;;;;;42.67;9.73;;;;;;;7.08;100.00;102374.28;5112839;27;20145;-75
2022/01/27 09:24:16;;;;;;;31.92;9.52;;;;;;;7.12;100.00;102383.19;5108608;27;20032;-76
2022/01/27 09:26:59;;;;;;;28.75;9.02;;;;;;;7.19;100.00;102376.59;5091054;27;20120;-75
2022/01/27 09:29:25;;;;;;;33.65;8.25;;;;;;;7.23;100.00;102374.22;5102070;27;20016;-76
2022/01/27 09:31:50;;;;;;;32.75;8.60;;;;;;;7.29;100.00;102378.91;5115048;27;20042;-75
2022/01/27 09:34:17;;;;;;;33.83;8.05;;;;;;;7.35;100.00;102365.25;5114746;27;20027;-76
2022/01/27 09:36:43;;;;;;;27.88;7.97;;;;;;;7.37;100.00;102382.84;5112039;27;20016;-75
2022/01/27 09:39:09;;;;;;;28.65;7.95;;;;;;;7.42;100.00;102372.63;5086481;28;20093;-74
2022/01/27 09:41:38;;;;;;;27.60;8.30;;;;;;;7.45;100.00;102379.72;5077926;28;20165;-75
2022/01/27 09:44:04;;;;;;;30.38;7.63;;;;;;;7.49;100.00;102380.00;5108072;27;20051;-75
2022/01/27 09:46:31;;;;;;;31.15;8.63;;;;;;;7.49;100.00;102381.69;5097176;27;20034;-75
2022/01/27 09:48:58;;;;;;;26.25;7.13;;;;;;;7.48;100.00;102387.78;5087625;28;20047;-76
2022/01/27 09:51:27;;;;;;;28.67;7.55;;;;;;;7.51;100.00;102390.53;5105909;27;20023;-76
2022/01/27 09:53:55;;;;;;;24.30;7.15;;;;;;;7.53;100.00;102399.41;5093045;28;20077;-76
2022/01/27 09:56:21;;;;;;;35.30;8.07;;;;;;;7.58;100.00;102392.66;5089953;27;20031;-76
2022/01/27 09:58:46;;;;;;;32.10;7.88;;;;;;;7.58;100.00;102396.22;5105210;27;20479;-75
2022/01/27 10:01:12;;;;;;;29.02;7.60;;;;;;;7.63;100.00;102385.06;5111901;27;20051;-76
2022/01/27 10:03:57;;;;;;;33.28;6.60;;;;;;;7.69;100.00;102394.16;5103555;27;20036;-76
2022/01/27 10:06:29;;;;;;;28.83;7.05;;;;;;;7.66;100.00;102391.34;5101675;27;20019;-75
2022/01/27 10:09:24;;;;;;;24.40;7.20;;;;;;;7.70;100.00;102390.69;5115027;27;20027;-76
2022/01/27 10:11:51;;;;;;;32.90;7.72;;;;;;;7.75;100.00;102390.97;5122159;27;20262;-75
2022/01/27 10:14:16;;;;;;;25.67;6.97;;;;;;;7.73;100.00;102390.88;5120648;27;20050;-75
2022/01/27 10:16:42;;;;;;;26.10;7.60;;;;;;;7.77;100.00;102394.56;5110204;27;20470;-76
2022/01/27 10:19:10;;;;;;;25.42;6.95;;;;;;;7.77;100.00;102397.16;5078821;28;20051;-75
2022/01/27 10:21:37;;;;;;;27.55;6.65;;;;;;;7.81;100.00;102407.00;5107131;28;20032;-75
2022/01/27 10:24:25;;;;;;;25.60;7.15;;;;;;;7.81;100.00;102393.00;5107553;27;20077;-75
2022/01/27 10:32:50;;;;;;;28.67;6.40;;;;;;;7.80;100.00;102401.69;5116130;27;20039;-74
2022/01/27 10:35:19;;;;;;;21.33;6.35;;;;;;;7.83;100.00;102401.88;5100000;27;20020;-76
2022/01/27 10:38:12;;;;;;;20.33;6.13;;;;;;;7.85;100.00;102402.81;5098434;28;20073;-75
2022/01/27 10:40:44;;;;;;;25.30;6.40;;;;;;;7.86;100.00;102407.25;5105994;27;20045;-74
2022/01/27 10:43:20;;;;;;;23.48;7.38;;;;;;;7.88;100.00;102402.97;5097237;27;20516;-74
2022/01/27 10:46:24;;;;;;;27.00;6.05;;;;;;;7.90;100.00;102404.88;5104577;27;20525;-75
2022/01/27 10:49:09;;;;;;;26.65;6.70;;;;;;;7.93;100.00;102407.66;5094032;28;20044;-75
2022/01/27 10:51:48;;;;;;;17.40;5.70;;;;;;;7.98;100.00;102409.63;5086514;28;20020;-75
2022/01/27 10:54:22;;;;;;;24.95;5.85;;;;;;;8.03;100.00;102413.38;5107357;27;20047;-74
2022/01/27 10:56:48;;;;;;;22.02;5.07;;;;;;;8.05;100.00;102406.50;5095916;28;20086;-76
2022/01/27 10:59:19;;;;;;;20.27;6.22;;;;;;;8.10;100.00;102405.91;5115926;27;20031;-76
2022/01/27 11:01:46;;;;;;;24.48;6.78;;;;;;;8.16;100.00;102410.56;5108806;27;20028;-74
2022/01/27 11:04:14;;;;;;;20.83;5.63;;;;;;;8.16;100.00;102409.69;5087493;28;20051;-75
2022/01/27 11:06:55;;;;;;;22.48;5.72;;;;;;;8.23;100.00;102414.41;5099353;27;20015;-73
2022/01/27 11:09:20;;;;;;;22.17;4.72;;;;;;;8.21;100.00;102402.97;5114221;27;20032;-74
2022/01/27 11:11:48;;;;;;;25.05;5.38;;;;;;;8.24;100.00;102409.25;5108844;27;20486;-75
2022/01/27 11:14:13;;;;;;;20.88;6.55;;;;;;;8.26;100.00;102404.06;5098313;27;20028;-73
2022/01/27 11:16:42;;;;;;;16.70;5.90;;;;;;;8.36;100.00;102411.59;5114273;27;20039;-74
2022/01/27 11:19:17;;;;;;;15.23;4.60;;;;;;;8.43;100.00;102399.69;5107136;27;20038;-75
2022/01/27 11:21:47;;;;;;;20.38;5.30;;;;;;;8.44;100.00;102407.63;5098183;27;20030;-74
2022/01/27 11:24:28;;;;;;;24.25;6.20;;;;;;;8.45;100.00;102398.09;5102724;28;20073;-74
2022/01/27 11:26:56;;;;;;;27.75;6.82;;;;;;;8.44;100.00;102396.25;5091961;27;20447;-73
2022/01/27 11:29:23;;;;;;;19.98;5.53;;;;;;;8.42;100.00;102406.69;5087163;28;20360;-74
2022/01/27 11:32:15;;;;;;;29.52;4.75;;;;;;;8.47;100.00;102400.78;5082794;28;20102;-74
2022/01/27 11:34:44;;;;;;;16.35;4.90;;;;;;;8.53;100.00;102406.34;5093122;27;20092;-75
2022/01/27 11:37:09;;;;;;;17.33;4.82;;;;;;;8.55;100.00;102399.44;5109667;27;20019;-74
2022/01/27 11:39:53;;;;;;;20.45;5.85;;;;;;;8.64;100.00;102394.66;5102825;28;20456;-74
2022/01/27 11:42:54;;;;;;;25.23;5.57;;;;;;;8.69;100.00;102390.53;5102384;27;20023;-75
2022/01/27 11:45:22;;;;;;;21.02;5.28;;;;;;;8.76;100.00;102394.34;5101118;28;20176;-74
2022/01/27 11:48:24;;;;;;;20.52;5.95;;;;;;;8.81;100.00;102391.97;5079776;28;20464;-74
2022/01/27 11:51:10;;;;;;;12.07;4.38;;;;;;;8.86;100.00;102399.22;5084130;28;20027;-74
2022/01/27 11:53:43;;;;;;;19.85;5.40;;;;;;;8.91;100.00;102394.19;5061857;28;20422;-74